Time;durP1;ratioP1;P1;durP2;ratioP2;P2;SDS_P1;SDS_P2;PMS_P1;PMS_P2;Temp;Humidity;BMP_temperature;BMP_pressure;BME280_temperature;BME280_humidity;BME280_pressure;Samples;Min_cycle;Max_cycle;Signal;HPM_P1;HPM_P2
2023/03/17 00:02:23;;;;;;;;;;;;;;;26.54;37.51;97258.84;586004;242;67242;-67
2023/03/17 00:04:51;;;;;;;;;;;;;;;26.52;38.03;97265.66;586041;242;67337;-67
2023/03/17 00:07:19;;;;;;;;;;;;;;;26.54;39.32;97268.83;586007;242;65276;-67
2023/03/17 00:09:46;;;;;;;;;;;;;;;26.52;39.25;97261.06;586087;242;67464;-67
2023/03/17 00:12:14;;;;;;;;;;;;;;;26.52;38.47;97268.35;586034;242;64930;-67
2023/03/17 00:14:43;;;;;;;;;;;;;;;26.51;37.57;97264.04;586029;242;65034;-67
2023/03/17 00:17:12;;;;;;;;;;;;;;;26.52;37.39;97271.84;586028;242;68256;-67
2023/03/17 00:19:42;;;;;;;;;;;;;;;26.49;38.42;97268.89;586003;242;64815;-67
2023/03/17 00:22:11;;;;;;;;;;;;;;;26.49;37.95;97267.02;586081;242;63827;-67
2023/03/17 00:24:38;;;;;;;;;;;;;;;26.50;39.93;97267.81;585904;242;64869;-67
2023/03/17 00:27:11;;;;;;;;;;;;;;;26.48;37.88;97260.02;586005;242;67981;-68
2023/03/17 00:29:39;;;;;;;;;;;;;;;26.48;40.54;97248.45;586035;242;65237;-67
2023/03/17 00:32:08;;;;;;;;;;;;;;;26.47;36.73;97257.64;585981;242;64704;-67
2023/03/17 00:34:36;;;;;;;;;;;;;;;26.47;41.58;97265.73;585383;242;65183;-68
2023/03/17 00:37:03;;;;;;;;;;;;;;;26.46;40.65;97261.41;588238;240;65217;-67
2023/03/17 00:39:31;;;;;;;;;;;;;;;26.45;42.03;97257.93;590261;240;64849;-67
2023/03/17 00:41:58;;;;;;;;;;;;;;;26.43;39.91;97262.02;590282;240;64943;-67
2023/03/17 00:44:26;;;;;;;;;;;;;;;26.43;39.43;97251.23;590282;240;65322;-67
2023/03/17 00:46:55;;;;;;;;;;;;;;;26.44;39.29;97263.63;590270;240;64834;-67
2023/03/17 00:49:25;;;;;;;;;;;;;;;26.42;38.20;97255.84;590328;240;67160;-67
2023/03/17 00:51:53;;;;;;;;;;;;;;;26.43;40.70;97256.63;590290;240;65161;-67
2023/03/17 00:54:21;;;;;;;;;;;;;;;26.42;42.25;97257.73;590272;240;67227;-67
2023/03/17 00:56:50;;;;;;;;;;;;;;;26.41;37.57;97256.13;590302;240;67102;-67
2023/03/17 00:59:20;;;;;;;;;;;;;;;26.42;38.75;97269.31;590290;240;65162;-67
2023/03/17 01:01:48;;;;;;;;;;;;;;;26.41;39.43;97256.13;590325;240;66872;-68
2023/03/17 01:04:15;;;;;;;;;;;;;;;26.41;40.05;97258.82;590287;240;65000;-62
2023/03/17 01:06:43;;;;;;;;;;;;;;;26.39;41.03;97261.83;590255;240;62616;-62
2023/03/17 01:09:15;;;;;;;;;;;;;;;26.38;41.12;97268.30;590285;240;67647;-61
2023/03/17 01:11:42;;;;;;;;;;;;;;;26.35;42.19;97261.64;590048;240;67274;-62
2023/03/17 01:14:11;;;;;;;;;;;;;;;26.37;39.94;97263.23;590305;240;65020;-62
2023/03/17 01:16:39;;;;;;;;;;;;;;;26.37;39.33;97263.23;590302;240;64962;-67
2023/03/17 01:19:07;;;;;;;;;;;;;;;26.34;40.35;97270.80;590301;240;67244;-67
2023/03/17 01:21:34;;;;;;;;;;;;;;;26.35;41.24;97266.20;590317;240;65071;-67
2023/03/17 01:24:02;;;;;;;;;;;;;;;26.32;42.82;97262.22;590318;240;66960;-67
2023/03/17 01:26:29;;;;;;;;;;;;;;;26.32;41.64;97269.50;590272;240;64490;-67
2023/03/17 01:28:57;;;;;;;;;;;;;;;26.33;39.64;97268.42;590347;240;62685;-67
2023/03/17 01:31:25;;;;;;;;;;;;;;;26.33;39.55;97273.81;590286;240;66800;-68
2023/03/17 01:33:53;;;;;;;;;;;;;;;26.33;37.22;97271.13;590305;240;64523;-67
2023/03/17 01:36:22;;;;;;;;;;;;;;;26.33;40.57;97268.42;590271;240;65833;-67
2023/03/17 01:38:49;;;;;;;;;;;;;;;26.31;41.23;97270.61;590280;240;66689;-62
2023/03/17 01:41:21;;;;;;;;;;;;;;;26.28;38.79;97277.40;590358;240;66912;-61
2023/03/17 01:43:49;;;;;;;;;;;;;;;26.28;39.76;97276.60;590297;240;65505;-62
2023/03/17 01:46:24;;;;;;;;;;;;;;;26.29;41.27;97272.80;590301;240;64402;-62
2023/03/17 01:48:57;;;;;;;;;;;;;;;26.27;39.00;97281.20;585292;240;66833;-67
2023/03/17 01:51:26;;;;;;;;;;;;;;;26.26;43.12;97290.36;590261;240;65208;-66
2023/03/17 01:53:55;;;;;;;;;;;;;;;26.24;41.00;97286.37;590276;240;67305;-61
2023/03/17 01:56:23;;;;;;;;;;;;;;;26.23;42.11;97285.58;590321;240;67454;-61
2023/03/17 01:58:52;;;;;;;;;;;;;;;26.23;39.45;97284.78;590283;240;63069;-61
2023/03/17 02:01:22;;;;;;;;;;;;;;;26.22;42.33;97280.47;590294;240;67419;-66
2023/03/17 02:03:51;;;;;;;;;;;;;;;26.20;38.13;97288.87;590019;240;66025;-66
2023/03/17 02:06:19;;;;;;;;;;;;;;;26.20;42.69;97296.95;590280;240;65211;-66
2023/03/17 02:08:46;;;;;;;;;;;;;;;26.20;43.80;97302.34;590321;240;67266;-66
2023/03/17 02:11:14;;;;;;;;;;;;;;;26.19;43.55;97300.75;590302;240;66882;-66
2023/03/17 02:13:43;;;;;;;;;;;;;;;26.18;42.46;97296.44;590319;240;65079;-66
2023/03/17 02:16:16;;;;;;;;;;;;;;;26.16;41.97;97295.93;590300;240;45615;-67
2023/03/17 02:18:44;;;;;;;;;;;;;;;26.16;44.03;97301.32;590269;240;64690;-61
2023/03/17 02:21:31;;;;;;;;;;;;;;;26.15;40.84;97299.73;590171;240;46499;-61
2023/03/17 02:24:04;;;;;;;;;;;;;;;26.15;41.29;97301.63;590324;240;67315;-61
2023/03/17 02:26:33;;;;;;;;;;;;;;;26.13;43.26;97301.92;590276;240;67072;-61
2023/03/17 02:29:01;;;;;;;;;;;;;;;26.13;43.49;97307.30;590252;240;65112;-61
2023/03/17 02:31:29;;;;;;;;;;;;;;;26.11;40.67;97304.13;590290;240;67085;-61
2023/03/17 02:33:56;;;;;;;;;;;;;;;26.11;40.78;97309.52;590263;240;67054;-61
2023/03/17 02:36:24;;;;;;;;;;;;;;;26.10;43.31;97314.08;589223;240;65389;-61
2023/03/17 02:38:52;;;;;;;;;;;;;;;26.09;40.16;97311.70;586122;242;67500;-61
2023/03/17 02:41:20;;;;;;;;;;;;;;;26.10;43.27;97319.47;586021;242;67779;-61
2023/03/17 02:43:48;;;;;;;;;;;;;;;26.10;44.00;97324.06;586058;242;63844;-61
2023/03/17 02:46:16;;;;;;;;;;;;;;;26.07;41.97;97324.66;586003;242;67498;-61
2023/03/17 02:48:43;;;;;;;;;;;;;;;26.07;42.78;97330.05;586049;242;67117;-61
2023/03/17 02:51:11;;;;;;;;;;;;;;;26.07;41.86;97332.73;586112;242;65296;-61
2023/03/17 02:53:38;;;;;;;;;;;;;;;26.06;41.27;97333.84;586034;242;67370;-61
2023/03/17 02:56:06;;;;;;;;;;;;;;;26.05;39.66;97321.45;586027;242;67148;-61
2023/03/17 02:58:33;;;;;;;;;;;;;;;26.05;43.19;97326.84;586046;242;65051;-61
2023/03/17 03:01:02;;;;;;;;;;;;;;;26.04;41.96;97325.26;586033;242;67249;-61
2023/03/17 03:03:30;;;;;;;;;;;;;;;26.03;40.83;97326.36;586129;242;66826;-61
2023/03/17 03:05:57;;;;;;;;;;;;;;;26.01;41.28;97332.03;586032;242;62862;-61
2023/03/17 03:08:25;;;;;;;;;;;;;;;26.01;42.64;97332.03;586026;242;65085;-61
2023/03/17 03:10:53;;;;;;;;;;;;;;;26.01;42.54;97328.55;586003;242;67284;-61
2023/03/17 03:13:21;;;;;;;;;;;;;;;26.00;41.11;97335.01;586055;242;65183;-61
2023/03/17 03:15:49;;;;;;;;;;;;;;;25.99;41.10;97334.22;586076;242;67296;-61
2023/03/17 03:18:17;;;;;;;;;;;;;;;25.98;44.08;97337.22;586049;242;67038;-61
2023/03/17 03:20:45;;;;;;;;;;;;;;;25.98;41.30;97339.91;586007;242;62722;-61
2023/03/17 03:23:13;;;;;;;;;;;;;;;25.97;43.17;97346.38;586040;242;67215;-61
2023/03/17 03:25:41;;;;;;;;;;;;;;;25.97;42.65;97351.77;586012;242;67041;-61
2023/03/17 03:28:09;;;;;;;;;;;;;;;25.96;42.16;97350.97;586109;242;65099;-61
2023/03/17 03:30:37;;;;;;;;;;;;;;;25.95;45.02;97353.97;586100;242;66970;-61
2023/03/17 03:33:05;;;;;;;;;;;;;;;25.95;43.08;97345.89;586025;242;67110;-61
2023/03/17 03:35:33;;;;;;;;;;;;;;;25.93;42.29;97351.56;585987;242;65665;-61
2023/03/17 03:38:01;;;;;;;;;;;;;;;25.93;43.60;97345.38;586005;241;65267;-61
2023/03/17 03:40:28;;;;;;;;;;;;;;;25.92;43.03;97349.97;586056;242;65014;-61
2023/03/17 03:42:56;;;;;;;;;;;;;;;25.91;41.35;97353.74;586090;242;63207;-61
2023/03/17 03:45:23;;;;;;;;;;;;;;;25.90;43.58;97349.46;586014;242;65032;-61
2023/03/17 03:47:51;;;;;;;;;;;;;;;25.90;42.62;97352.16;586051;242;64975;-61
2023/03/17 03:50:18;;;;;;;;;;;;;;;25.89;41.10;97361.30;586032;242;62942;-61
2023/03/17 03:52:46;;;;;;;;;;;;;;;25.88;43.29;97360.52;586035;242;64836;-61
2023/03/17 03:55:13;;;;;;;;;;;;;;;25.87;42.62;97360.83;586091;242;66990;-61
2023/03/17 03:57:41;;;;;;;;;;;;;;;25.86;43.38;97362.72;586044;242;64908;-61
2023/03/17 04:00:09;;;;;;;;;;;;;;;25.85;42.98;97363.80;586014;242;67297;-61
2023/03/17 04:02:40;;;;;;;;;;;;;;;25.85;44.52;97361.10;586039;242;65168;-60
2023/03/17 04:05:08;;;;;;;;;;;;;;;25.84;40.61;97359.52;586017;242;65359;-60
2023/03/17 04:07:36;;;;;;;;;;;;;;;25.84;44.63;97364.90;586038;242;67264;-60
2023/03/17 04:10:04;;;;;;;;;;;;;;;25.83;43.16;97371.36;586046;242;66861;-60
2023/03/17 04:12:31;;;;;;;;;;;;;;;25.82;42.12;97364.36;586011;242;65040;-60
2023/03/17 04:14:59;;;;;;;;;;;;;;;25.82;43.65;97369.74;586030;242;67330;-60
2023/03/17 04:17:26;;;;;;;;;;;;;;;25.80;43.40;97371.92;586026;242;66876;-60
2023/03/17 04:19:53;;;;;;;;;;;;;;;25.80;45.84;97380.00;586074;242;65023;-60
2023/03/17 04:22:21;;;;;;;;;;;;;;;25.79;45.17;97375.72;586093;242;64943;-60
2023/03/17 04:24:49;;;;;;;;;;;;;;;25.78;45.67;97378.69;586004;242;67282;-60
2023/03/17 04:27:18;;;;;;;;;;;;;;;25.78;43.54;97376.82;585998;242;62986;-60
2023/03/17 04:29:46;;;;;;;;;;;;;;;25.77;43.07;97387.87;586007;242;64934;-60
2023/03/17 04:32:14;;;;;;;;;;;;;;;25.77;44.11;97387.87;586019;242;67186;-60
2023/03/17 04:34:41;;;;;;;;;;;;;;;25.76;42.90;97395.16;586089;242;65079;-60
2023/03/17 04:37:10;;;;;;;;;;;;;;;25.76;42.81;97405.12;586021;241;67269;-60
2023/03/17 04:39:37;;;;;;;;;;;;;;;25.75;44.28;97398.12;586014;242;67144;-60
2023/03/17 04:42:06;;;;;;;;;;;;;;;25.73;44.39;97395.74;586051;242;65217;-60
2023/03/17 04:44:34;;;;;;;;;;;;;;;25.72;43.33;97402.20;586005;242;64952;-60
2023/03/17 04:47:03;;;;;;;;;;;;;;;25.73;42.77;97408.38;586072;242;67417;-60
2023/03/17 04:49:30;;;;;;;;;;;;;;;25.72;43.61;97410.27;586007;242;62947;-60
2023/03/17 04:51:58;;;;;;;;;;;;;;;25.71;44.40;97416.76;586027;242;67434;-60
2023/03/17 04:54:25;;;;;;;;;;;;;;;25.70;40.99;97417.86;586025;242;67160;-60
2023/03/17 04:56:55;;;;;;;;;;;;;;;25.68;43.50;97412.76;586047;242;46351;-61
2023/03/17 04:59:22;;;;;;;;;;;;;;;25.68;43.00;97417.34;586079;242;67160;-61
2023/03/17 05:01:50;;;;;;;;;;;;;;;25.68;44.58;97420.04;586014;242;67127;-62
2023/03/17 05:04:18;;;;;;;;;;;;;;;25.66;43.80;97417.63;586022;242;66509;-62
2023/03/17 05:06:45;;;;;;;;;;;;;;;25.67;41.65;97426.50;586052;242;67274;-62
2023/03/17 05:09:13;;;;;;;;;;;;;;;25.66;46.47;97422.22;585990;242;65121;-62
2023/03/17 05:11:41;;;;;;;;;;;;;;;25.65;43.59;97426.01;586095;242;64901;-62
2023/03/17 05:14:08;;;;;;;;;;;;;;;25.64;45.32;97433.26;586054;242;67423;-60
2023/03/17 05:16:36;;;;;;;;;;;;;;;25.63;43.53;97434.36;586003;242;66955;-60
2023/03/17 05:19:05;;;;;;;;;;;;;;;25.63;47.72;97439.74;586010;242;62960;-60
2023/03/17 05:21:33;;;;;;;;;;;;;;;25.62;44.86;97438.16;586038;242;67379;-62
2023/03/17 05:24:00;;;;;;;;;;;;;;;25.61;42.66;97447.30;585982;242;67039;-60
2023/03/17 05:26:28;;;;;;;;;;;;;;;25.62;44.02;97445.44;586053;242;65223;-60
2023/03/17 05:28:56;;;;;;;;;;;;;;;25.59;43.76;97444.12;586025;242;67243;-60
2023/03/17 05:31:23;;;;;;;;;;;;;;;25.59;44.47;97436.05;586096;242;66377;-62
2023/03/17 05:33:51;;;;;;;;;;;;;;;25.58;43.33;97449.78;586053;242;64806;-62
2023/03/17 05:36:20;;;;;;;;;;;;;;;25.57;42.77;97446.30;586898;240;66963;-60
2023/03/17 05:38:47;;;;;;;;;;;;;;;25.58;44.43;97447.09;590325;240;66951;-61
2023/03/17 05:41:15;;;;;;;;;;;;;;;25.57;44.54;97445.50;590305;240;64831;-61
2023/03/17 05:43:42;;;;;;;;;;;;;;;25.56;43.81;97452.75;590289;240;66999;-61
2023/03/17 05:46:10;;;;;;;;;;;;;;;25.57;45.88;97448.20;590303;240;66957;-61
2023/03/17 05:48:37;;;;;;;;;;;;;;;25.56;44.57;97462.72;589889;240;62951;-61
2023/03/17 05:51:05;;;;;;;;;;;;;;;25.54;41.88;97460.34;590351;240;64776;-60
2023/03/17 05:53:34;;;;;;;;;;;;;;;25.52;42.27;97459.81;590296;240;64645;-61
2023/03/17 05:56:05;;;;;;;;;;;;;;;25.54;45.43;97464.92;590316;240;65090;-61
2023/03/17 05:58:33;;;;;;;;;;;;;;;25.51;44.14;97463.61;590272;240;67195;-61
2023/03/17 06:01:01;;;;;;;;;;;;;;;25.51;44.98;97473.55;590292;240;67120;-61
2023/03/17 06:03:31;;;;;;;;;;;;;;;25.53;47.65;97482.14;590266;240;46217;-61
2023/03/17 06:06:04;;;;;;;;;;;;;;;25.50;45.74;97482.72;590230;240;46145;-61
2023/03/17 06:08:33;;;;;;;;;;;;;;;25.51;45.47;97484.31;590277;240;67225;-61
2023/03/17 06:11:03;;;;;;;;;;;;;;;25.48;42.73;97491.07;590358;240;45952;-61
2023/03/17 06:13:30;;;;;;;;;;;;;;;25.48;41.41;97491.07;590208;240;67374;-61
2023/03/17 06:15:59;;;;;;;;;;;;;;;25.49;46.62;97487.31;590274;240;67174;-61
2023/03/17 06:18:27;;;;;;;;;;;;;;;25.49;44.55;97491.90;590335;240;63859;-61
2023/03/17 06:20:57;;;;;;;;;;;;;;;25.49;46.05;97491.90;590288;240;67262;-61
2023/03/17 06:23:24;;;;;;;;;;;;;;;25.48;46.19;97493.77;590289;240;67138;-61
2023/03/17 06:25:54;;;;;;;;;;;;;;;25.49;43.31;97494.59;590261;240;62854;-61
2023/03/17 06:28:22;;;;;;;;;;;;;;;25.50;44.42;97494.28;590226;240;65025;-60
2023/03/17 06:30:51;;;;;;;;;;;;;;;25.51;44.79;97495.08;590336;240;67316;-67
2023/03/17 06:33:20;;;;;;;;;;;;;;;25.52;41.64;97502.88;590297;240;62946;-67
2023/03/17 06:35:50;;;;;;;;;;;;;;;25.56;41.79;97505.78;590253;240;67626;-68
2023/03/17 06:38:19;;;;;;;;;;;;;;;25.59;40.52;97503.33;590272;240;64796;-67
2023/03/17 06:40:47;;;;;;;;;;;;;;;25.64;41.68;97505.14;590248;240;65071;-67
2023/03/17 06:43:14;;;;;;;;;;;;;;;25.67;42.75;97505.38;590261;240;67117;-68
2023/03/17 06:45:45;;;;;;;;;;;;;;;25.74;41.31;97504.22;590409;240;46592;-68
2023/03/17 06:48:13;;;;;;;;;;;;;;;25.77;38.44;97499.04;590163;240;62650;-67
2023/03/17 06:50:43;;;;;;;;;;;;;;;25.82;36.94;97506.25;590177;240;43464;-68
2023/03/17 06:53:11;;;;;;;;;;;;;;;25.88;39.96;97511.30;589656;240;65289;-67
2023/03/17 06:55:38;;;;;;;;;;;;;;;25.94;37.78;97508.53;589854;240;65096;-69
2023/03/17 06:58:08;;;;;;;;;;;;;;;26.02;36.53;97510.57;590311;240;67340;-67
2023/03/17 07:00:41;;;;;;;;;;;;;;;26.02;37.99;97505.98;590257;240;64875;-69
2023/03/17 07:03:13;;;;;;;;;;;;;;;26.08;40.18;97520.17;591265;236;45419;-68
2023/03/17 07:05:41;;;;;;;;;;;;;;;26.13;40.91;97512.81;593048;239;64865;-66
2023/03/17 07:08:10;;;;;;;;;;;;;;;26.16;36.65;97511.42;589394;239;67150;-69
2023/03/17 07:10:45;;;;;;;;;;;;;;;26.19;35.88;97516.25;587036;240;65079;-70
2023/03/17 07:13:13;;;;;;;;;;;;;;;26.28;39.36;97516.39;586224;240;64605;-67
2023/03/17 07:15:41;;;;;;;;;;;;;;;26.31;41.48;97519.28;588352;241;67109;-67
2023/03/17 07:18:10;;;;;;;;;;;;;;;26.32;41.59;97514.69;588573;240;65252;-67
2023/03/17 07:20:38;;;;;;;;;;;;;;;26.35;41.09;97520.31;588664;240;65120;-72
2023/03/17 07:23:07;;;;;;;;;;;;;;;26.39;41.31;97528.60;588600;240;67018;-68
2023/03/17 07:25:35;;;;;;;;;;;;;;;26.42;41.67;97519.92;588528;240;65159;-67
2023/03/17 07:28:06;;;;;;;;;;;;;;;26.48;38.55;97528.73;588610;240;67223;-68
2023/03/17 07:30:33;;;;;;;;;;;;;;;26.53;38.83;97528.67;588610;240;66783;-67
2023/03/17 07:33:01;;;;;;;;;;;;;;;26.58;37.11;97536.69;588543;240;64017;-66
2023/03/17 07:35:29;;;;;;;;;;;;;;;26.63;34.03;97531.22;577786;241;66825;-67
2023/03/17 07:37:57;;;;;;;;;;;;;;;26.72;34.92;97536.72;582630;241;68263;-67
2023/03/17 07:40:25;;;;;;;;;;;;;;;26.78;34.94;97527.44;588149;240;65033;-68
2023/03/17 07:42:54;;;;;;;;;;;;;;;26.84;36.91;97525.45;588732;240;67384;-69
2023/03/17 07:45:21;;;;;;;;;;;;;;;26.89;35.46;97530.77;588604;241;66877;-68
2023/03/17 07:47:49;;;;;;;;;;;;;;;26.91;34.86;97537.45;588579;240;62707;-66
2023/03/17 07:50:17;;;;;;;;;;;;;;;26.97;35.48;97530.08;588563;240;67414;-68
2023/03/17 07:52:45;;;;;;;;;;;;;;;26.99;35.45;97536.77;588544;240;67182;-67
2023/03/17 07:55:14;;;;;;;;;;;;;;;27.01;36.79;97531.89;588809;240;65102;-67
2023/03/17 07:57:42;;;;;;;;;;;;;;;27.03;39.82;97528.88;588635;240;67033;-66
2023/03/17 08:00:12;;;;;;;;;;;;;;;27.05;38.75;97526.69;588506;241;64418;-65
2023/03/17 08:02:40;;;;;;;;;;;;;;;27.06;34.12;97533.67;588096;238;65136;-68
2023/03/17 08:05:09;;;;;;;;;;;;;;;27.12;34.91;97537.90;582309;241;68807;-68
2023/03/17 08:07:37;;;;;;;;;;;;;;;27.16;34.55;97533.52;587922;241;68535;-67
2023/03/17 08:10:06;;;;;;;;;;;;;;;27.22;35.19;97532.31;587970;241;65998;-70
2023/03/17 08:12:38;;;;;;;;;;;;;;;27.23;37.91;97539.33;587909;241;46775;-65
2023/03/17 08:15:06;;;;;;;;;;;;;;;27.23;39.19;97543.94;588013;241;65047;-65
2023/03/17 08:17:38;;;;;;;;;;;;;;;27.22;39.44;97537.71;587860;240;45024;-65
2023/03/17 08:20:08;;;;;;;;;;;;;;;27.22;38.62;97535.02;588034;240;48880;-65
2023/03/17 08:22:37;;;;;;;;;;;;;;;27.22;38.94;97531.52;588045;240;64708;-65
2023/03/17 08:25:05;;;;;;;;;;;;;;;27.23;39.64;97533.14;588044;240;65149;-65
2023/03/17 08:27:32;;;;;;;;;;;;;;;27.22;39.65;97535.02;587951;240;67168;-70
2023/03/17 08:30:01;;;;;;;;;;;;;;;27.22;37.46;97526.92;587885;240;66680;-67
2023/03/17 08:32:28;;;;;;;;;;;;;;;27.25;39.05;97530.13;588033;240;65169;-67
2023/03/17 08:34:56;;;;;;;;;;;;;;;27.23;40.61;97528.53;588030;240;67484;-62
2023/03/17 08:37:24;;;;;;;;;;;;;;;27.23;40.16;97533.94;587874;240;67177;-67
2023/03/17 08:39:53;;;;;;;;;;;;;;;27.22;38.28;97526.92;587989;240;62806;-61
2023/03/17 08:42:21;;;;;;;;;;;;;;;27.23;33.21;97528.53;587722;240;64906;-62
2023/03/17 08:44:48;;;;;;;;;;;;;;;27.29;34.56;97526.53;588032;240;67170;-61
2023/03/17 08:47:16;;;;;;;;;;;;;;;27.32;34.22;97530.53;588149;240;64636;-61
2023/03/17 08:49:44;;;;;;;;;;;;;;;27.33;33.78;97532.92;587863;241;67330;-61
2023/03/17 08:52:11;;;;;;;;;;;;;;;27.34;33.80;97533.74;588037;240;67015;-61
2023/03/17 08:54:39;;;;;;;;;;;;;;;27.35;34.52;97530.73;588065;240;62522;-61
2023/03/17 08:57:07;;;;;;;;;;;;;;;27.36;33.34;97528.83;588132;240;67418;-67
2023/03/17 08:59:36;;;;;;;;;;;;;;;27.37;36.04;97533.94;588076;240;67077;-70
2023/03/17 09:02:03;;;;;;;;;;;;;;;27.36;33.76;97532.31;587897;240;62947;-68
2023/03/17 09:04:31;;;;;;;;;;;;;;;27.38;34.77;97532.82;588258;241;67280;-69
2023/03/17 09:06:59;;;;;;;;;;;;;;;27.37;36.96;97533.14;588722;241;66962;-69
2023/03/17 09:09:27;;;;;;;;;;;;;;;27.36;39.20;97537.71;588642;241;63760;-67
2023/03/17 09:11:54;;;;;;;;;;;;;;;27.37;34.98;97533.14;588735;241;67287;-67
2023/03/17 09:14:23;;;;;;;;;;;;;;;27.38;36.20;97524.73;588693;240;66853;-67
2023/03/17 09:16:51;;;;;;;;;;;;;;;27.40;34.65;97524.44;588638;240;62781;-68
2023/03/17 09:19:19;;;;;;;;;;;;;;;27.42;34.94;97524.95;588564;240;65209;-66
2023/03/17 09:21:47;;;;;;;;;;;;;;;27.44;34.17;97523.52;588551;240;65424;-67
2023/03/17 09:24:15;;;;;;;;;;;;;;;27.47;34.06;97524.02;588720;240;65145;-73
2023/03/17 09:26:42;;;;;;;;;;;;;;;27.48;33.91;97529.13;588777;240;67293;-66
2023/03/17 09:29:10;;;;;;;;;;;;;;;27.51;34.15;97523.13;588618;241;65036;-65
2023/03/17 09:31:37;;;;;;;;;;;;;;;27.52;34.06;97524.72;588600;241;62971;-66
2023/03/17 09:34:05;;;;;;;;;;;;;;;27.54;34.10;97530.63;588671;241;67807;-67
2023/03/17 09:36:33;;;;;;;;;;;;;;;27.56;33.45;97531.13;588717;240;64500;-67
2023/03/17 09:39:00;;;;;;;;;;;;;;;27.53;38.22;97533.61;588931;240;65080;-70
2023/03/17 09:41:34;;;;;;;;;;;;;;;27.55;33.41;97529.51;588773;240;66806;-70
2023/03/17 09:44:10;;;;;;;;;;;;;;;27.58;34.19;97526.23;588753;241;66835;-72
2023/03/17 09:46:39;;;;;;;;;;;;;;;27.60;34.97;97524.00;588503;241;65281;-69
2023/03/17 09:49:10;;;;;;;;;;;;;;;27.57;36.16;97518.42;588630;241;65000;-69
2023/03/17 09:51:38;;;;;;;;;;;;;;;27.52;38.52;97515.83;587007;241;66713;-69
2023/03/17 09:54:09;;;;;;;;;;;;;;;27.47;38.97;97514.02;588656;241;44237;-69
2023/03/17 09:56:38;;;;;;;;;;;;;;;27.47;39.12;97521.33;588656;241;64480;-67
2023/03/17 09:59:07;;;;;;;;;;;;;;;27.44;37.91;97506.53;588612;241;64780;-68
2023/03/17 10:01:35;;;;;;;;;;;;;;;27.45;37.27;97508.14;588312;240;66043;-69
2023/03/17 10:04:05;;;;;;;;;;;;;;;27.43;38.51;97510.34;588383;240;67261;-66
2023/03/17 10:06:45;;;;;;;;;;;;;;;27.43;38.73;97500.34;588133;241;64713;-68
2023/03/17 10:09:17;;;;;;;;;;;;;;;27.43;39.30;97511.13;587960;240;63010;-68
2023/03/17 10:11:48;;;;;;;;;;;;;;;27.43;38.69;97500.34;587712;240;67270;-68
2023/03/17 10:14:23;;;;;;;;;;;;;;;27.44;33.01;97495.73;588053;240;67072;-68
2023/03/17 10:16:53;;;;;;;;;;;;;;;27.51;35.34;97500.73;588056;241;62926;-62
2023/03/17 10:19:28;;;;;;;;;;;;;;;27.51;38.55;97506.14;588084;240;67281;-63
2023/03/17 10:22:13;;;;;;;;;;;;;;;27.51;38.15;97501.53;588055;241;67001;-60
2023/03/17 10:24:42;;;;;;;;;;;;;;;27.51;37.13;97504.23;588107;240;65123;-68
2023/03/17 10:27:10;;;;;;;;;;;;;;;27.52;37.37;97497.72;588092;240;67212;-71
2023/03/17 10:29:40;;;;;;;;;;;;;;;27.52;38.46;97497.72;588042;240;66687;-63
2023/03/17 10:32:09;;;;;;;;;;;;;;;27.53;37.87;97507.44;588109;240;65224;-63
2023/03/17 10:34:38;;;;;;;;;;;;;;;27.54;37.47;97511.72;588043;241;65016;-61
2023/03/17 10:37:08;;;;;;;;;;;;;;;27.56;37.15;97500.64;587873;240;67553;-61
2023/03/17 10:39:46;;;;;;;;;;;;;;;27.56;37.33;97503.34;588109;240;64949;-61
2023/03/17 10:42:15;;;;;;;;;;;;;;;27.57;38.05;97511.12;588038;241;67223;-65
2023/03/17 10:44:44;;;;;;;;;;;;;;;27.58;35.20;97512.73;587803;240;67042;-61
2023/03/17 10:47:30;;;;;;;;;;;;;;;27.64;35.23;97500.72;587704;240;65197;-61
2023/03/17 10:49:59;;;;;;;;;;;;;;;27.67;33.78;97502.02;588188;241;67057;-63
2023/03/17 10:52:29;;;;;;;;;;;;;;;27.67;34.36;97500.11;588328;240;67848;-61
2023/03/17 10:54:58;;;;;;;;;;;;;;;27.69;34.92;97505.19;588202;240;65069;-61
2023/03/17 10:57:26;;;;;;;;;;;;;;;27.70;34.95;97504.11;587967;240;66849;-62
2023/03/17 10:59:55;;;;;;;;;;;;;;;27.72;33.14;97503.78;587000;240;64881;-61
2023/03/17 11:02:27;;;;;;;;;;;;;;;27.73;32.34;97505.41;591388;239;64909;-61
2023/03/17 11:04:56;;;;;;;;;;;;;;;27.74;33.23;97505.08;593991;238;65460;-61
2023/03/17 11:07:30;;;;;;;;;;;;;;;27.76;32.70;97502.09;594769;238;67093;-60
2023/03/17 11:09:59;;;;;;;;;;;;;;;27.75;32.70;97511.30;594730;238;63380;-61
2023/03/17 11:12:28;;;;;;;;;;;;;;;27.75;32.83;97514.01;594661;238;64959;-62
2023/03/17 11:15:02;;;;;;;;;;;;;;;27.76;33.97;97508.28;594862;238;67120;-60
2023/03/17 11:17:34;;;;;;;;;;;;;;;27.76;33.33;97505.59;594930;238;63044;-60
2023/03/17 11:20:07;;;;;;;;;;;;;;;27.76;34.10;97505.59;594847;238;67091;-61
2023/03/17 11:22:45;;;;;;;;;;;;;;;27.78;33.97;97516.09;594963;238;64979;-59
2023/03/17 11:25:14;;;;;;;;;;;;;;;27.78;32.29;97514.19;594927;238;62789;-60
2023/03/17 11:27:46;;;;;;;;;;;;;;;27.79;34.36;97518.48;594714;238;67068;-60
2023/03/17 11:30:20;;;;;;;;;;;;;;;27.79;34.20;97512.28;594794;237;67220;-59
2023/03/17 11:32:59;;;;;;;;;;;;;;;27.79;33.27;97509.58;594767;237;65058;-66
2023/03/17 11:35:44;;;;;;;;;;;;;;;27.78;33.60;97510.70;594876;238;69315;-60
2023/03/17 11:38:27;;;;;;;;;;;;;;;27.78;33.77;97511.48;595017;238;67170;-60
2023/03/17 11:40:56;;;;;;;;;;;;;;;27.77;35.12;97514.48;594764;238;65258;-61
2023/03/17 11:43:31;;;;;;;;;;;;;;;27.76;33.66;97508.28;594918;238;67375;-59
2023/03/17 11:46:09;;;;;;;;;;;;;;;27.77;31.55;97511.78;594900;238;66692;-59
2023/03/17 11:48:41;;;;;;;;;;;;;;;27.71;36.86;97511.09;582135;243;65311;-59
2023/03/17 11:51:14;;;;;;;;;;;;;;;27.65;37.40;97499.60;594905;238;64772;-60
2023/03/17 11:53:43;;;;;;;;;;;;;;;27.64;31.80;97498.02;588171;238;67257;-60
2023/03/17 11:56:15;;;;;;;;;;;;;;;27.68;36.28;97493.59;594984;238;65212;-60
2023/03/17 11:58:44;;;;;;;;;;;;;;;27.71;37.95;97494.89;594996;238;65851;-60
2023/03/17 12:01:16;;;;;;;;;;;;;;;27.73;36.21;97492.69;594629;238;67283;-60
2023/03/17 12:03:49;;;;;;;;;;;;;;;27.77;37.59;97499.07;591121;238;66129;-61
2023/03/17 12:06:19;;;;;;;;;;;;;;;27.80;37.12;97497.70;591228;238;69458;-60
2023/03/17 12:08:55;;;;;;;;;;;;;;;27.82;37.66;97495.50;591425;238;66918;-60
2023/03/17 12:11:23;;;;;;;;;;;;;;;27.82;36.72;97507.09;591350;238;65119;-61
2023/03/17 12:13:52;;;;;;;;;;;;;;;27.83;37.30;97495.20;591268;238;64594;-61
2023/03/17 12:16:24;;;;;;;;;;;;;;;27.84;36.73;97499.49;591115;238;67540;-63
2023/03/17 12:18:59;;;;;;;;;;;;;;;27.85;36.87;97501.08;591072;238;62923;-61
2023/03/17 12:21:35;;;;;;;;;;;;;;;27.86;33.97;97496.50;591098;238;67626;-61
2023/03/17 12:24:07;;;;;;;;;;;;;;;27.88;36.91;97510.48;591149;238;66892;-61
2023/03/17 12:26:48;;;;;;;;;;;;;;;27.86;36.13;97507.30;591390;238;62961;-61
2023/03/17 12:29:29;;;;;;;;;;;;;;;27.84;32.75;97509.50;582851;240;65034;-60
2023/03/17 12:31:58;;;;;;;;;;;;;;;27.85;37.42;97513.80;590989;238;66979;-59
2023/03/17 12:34:27;;;;;;;;;;;;;;;27.87;37.50;97516.99;590484;238;65095;-60
2023/03/17 12:36:55;;;;;;;;;;;;;;;27.88;39.58;97513.18;591138;240;67243;-60
2023/03/17 12:39:27;;;;;;;;;;;;;;;27.88;39.19;97519.41;589629;238;67082;-59
2023/03/17 12:42:13;;;;;;;;;;;;;;;27.89;37.09;97517.50;594283;238;64964;-60
2023/03/17 12:44:48;;;;;;;;;;;;;;;27.90;39.34;97516.38;592068;238;65271;-60
2023/03/17 12:47:33;;;;;;;;;;;;;;;27.86;33.71;97515.41;591159;240;64950;-60
2023/03/17 12:50:19;;;;;;;;;;;;;;;27.89;38.84;97517.50;591133;238;65294;-60
2023/03/17 12:52:54;;;;;;;;;;;;;;;27.88;40.49;97519.41;591145;238;67218;-64
2023/03/17 12:55:23;;;;;;;;;;;;;;;27.87;38.64;97525.89;591525;238;67018;-60
2023/03/17 12:58:02;;;;;;;;;;;;;;;27.86;37.74;97526.21;591170;238;65970;-59
2023/03/17 13:00:32;;;;;;;;;;;;;;;27.85;38.80;97535.40;591037;238;69449;-60